Time;durP1;ratioP1;P1;durP2;ratioP2;P2;SDS_P1;SDS_P2;PMS_P1;PMS_P2;Temp;Humidity;BMP_temperature;BMP_pressure;BME280_temperature;BME280_humidity;BME280_pressure;Samples;Min_cycle;Max_cycle;Signal;HPM_P1;HPM_P2
2022/01/19 00:01:46;;;;;;;;;;;;;;;9.32;58.27;103380.13;5099388;28;19923;-84
2022/01/19 00:04:11;;;;;;;;;;;;;;;9.34;59.26;103381.03;5099919;28;19916;-83
2022/01/19 00:06:37;;;;;;;;;;;;;;;8.90;60.62;103373.84;5099758;28;19916;-84
2022/01/19 00:09:02;;;;;;;;;;;;;;;8.83;61.05;103370.25;5098401;28;19950;-82
2022/01/19 00:11:28;;;;;;;;;;;;;;;9.38;59.02;103362.09;5097992;28;19979;-83
2022/01/19 00:13:53;;;;;;;;;;;;;;;8.76;60.64;103368.47;5098031;28;20281;-81
2022/01/19 00:16:20;;;;;;;;;;;;;;;8.84;61.28;103369.34;5097487;28;19916;-83
2022/01/19 00:18:45;;;;;;;;;;;;;;;8.84;60.51;103370.25;5099420;28;19923;-83
2022/01/19 00:21:11;;;;;;;;;;;;;;;9.26;58.96;103355.84;5097616;28;19924;-82
2022/01/19 00:23:36;;;;;;;;;;;;;;;9.66;57.65;103366.53;5098814;28;19923;-84
2022/01/19 00:26:01;;;;;;;;;;;;;;;9.66;57.11;103355.72;5098128;28;19923;-83
2022/01/19 00:28:27;;;;;;;;;;;;;;;9.72;57.27;103351.19;5097134;28;19916;-82
2022/01/19 00:30:52;;;;;;;;;;;;;;;9.63;56.76;103345.84;5096479;28;20369;-82
2022/01/19 00:33:21;;;;;;;;;;;;;;;9.47;57.26;103326.06;5098575;28;19915;-84
2022/01/19 00:35:47;;;;;;;;;;;;;;;9.05;58.40;103309.03;5098824;28;19959;-83
2022/01/19 00:38:13;;;;;;;;;;;;;;;9.14;58.31;103294.63;5098734;28;19923;-85
2022/01/19 00:40:39;;;;;;;;;;;;;;;9.22;57.74;103282.91;5099241;28;19916;-83
2022/01/19 00:43:04;;;;;;;;;;;;;;;9.12;57.27;103269.41;5097604;28;19937;-84
2022/01/19 00:45:30;;;;;;;;;;;;;;;8.83;58.75;103257.78;5097954;28;19935;-84
2022/01/19 00:47:55;;;;;;;;;;;;;;;8.39;58.75;103246.97;5097664;28;19961;-84
2022/01/19 00:50:22;;;;;;;;;;;;;;;8.36;59.65;103253.28;5102202;28;19983;-82
2022/01/19 00:52:47;;;;;;;;;;;;;;;8.55;59.59;103264.13;5103952;28;19923;-83
2022/01/19 00:55:13;;;;;;;;;;;;;;;8.55;58.96;103269.50;5100352;28;19928;-84
2022/01/19 00:57:39;;;;;;;;;;;;;;;8.85;58.85;103273.97;5098113;28;19949;-85
2022/01/19 01:00:05;;;;;;;;;;;;;;;8.61;59.39;103278.50;5097577;28;19923;-82
2022/01/19 01:02:31;;;;;;;;;;;;;;;8.96;58.33;103265.88;5097111;28;19916;-83
2022/01/19 01:04:56;;;;;;;;;;;;;;;9.29;57.30;103261.28;5097049;28;20278;-84
2022/01/19 01:07:21;;;;;;;;;;;;;;;9.21;57.31;103261.31;5099073;28;20010;-84
2022/01/19 01:09:47;;;;;;;;;;;;;;;9.00;58.37;103249.66;5100984;28;20011;-84
2022/01/19 01:12:19;;;;;;;;;;;;;;;8.15;60.98;103235.28;5101002;28;19923;-83
2022/01/19 01:20:12;;;;;;;;;;;;;;;9.01;57.69;103215.44;5105834;28;19945;-84
2022/01/19 01:22:38;;;;;;;;;;;;;;;9.19;56.32;103209.09;5105471;28;19967;-82
2022/01/19 01:25:04;;;;;;;;;;;;;;;9.35;56.37;103200.00;5104885;28;19951;-82
2022/01/19 01:27:29;;;;;;;;;;;;;;;9.18;56.23;103207.31;5104498;28;20011;-83
2022/01/19 01:29:54;;;;;;;;;;;;;;;9.26;56.20;103212.69;5105162;28;19924;-83
2022/01/19 01:32:20;;;;;;;;;;;;;;;8.99;56.67;103198.34;5105453;28;20014;-83
2022/01/19 01:34:45;;;;;;;;;;;;;;;9.00;57.20;103192.06;5104513;28;19962;-84
2022/01/19 01:37:10;;;;;;;;;;;;;;;9.04;57.24;103174.94;5102556;28;19912;-83
2022/01/19 01:39:35;;;;;;;;;;;;;;;8.75;57.02;103167.81;5102765;28;19916;-83
2022/01/19 01:42:07;;;;;;;;;;;;;;;8.70;57.59;103153.47;5101366;28;19916;-83
2022/01/19 01:44:36;;;;;;;;;;;;;;;8.13;59.23;103138.22;5102744;28;19916;-84
2022/01/19 01:47:02;;;;;;;;;;;;;;;8.41;58.75;103134.59;5105263;28;19923;-83
2022/01/19 01:55:11;;;;;;;;;;;;;;;7.39;62.05;103146.22;5102511;28;19922;-82
2022/01/19 01:57:36;;;;;;;;;;;;;;;7.95;61.15;103138.22;5099154;28;19938;-83
2022/01/19 02:00:03;;;;;;;;;;;;;;;7.76;62.01;103140.00;5101612;28;20437;-83
2022/01/19 02:02:28;;;;;;;;;;;;;;;7.93;60.75;103132.84;5102021;28;19920;-83
2022/01/19 02:04:54;;;;;;;;;;;;;;;8.05;60.43;103131.94;5101129;28;19916;-83
2022/01/19 02:10:06;;;;;;;;;;;;;;;7.98;61.30;103106.75;5102309;28;19927;-82
2022/01/19 02:23:34;;;;;;;;;;;;;;;8.36;60.27;103125.63;5101693;28;19967;-83
2022/01/19 02:26:02;;;;;;;;;;;;;;;9.08;58.98;103120.03;5100721;28;19916;-84
2022/01/19 02:41:43;;;;;;;;;;;;;;;9.27;57.73;103083.03;5102549;28;20357;-83
2022/01/19 02:44:11;;;;;;;;;;;;;;;9.34;57.03;103070.34;5101196;28;19951;-83
2022/01/19 02:49:10;;;;;;;;;;;;;;;9.15;57.82;103065.06;5101849;28;19918;-83
2022/01/19 02:49:37;;;;;;;;;;;;;;;8.81;57.67;103051.75;5102169;28;20054;-84
2022/01/19 02:52:02;;;;;;;;;;;;;;;9.17;56.90;103038.06;5102711;28;19963;-83
2022/01/19 02:54:29;;;;;;;;;;;;;;;9.25;56.82;103017.28;5101615;28;19916;-83
2022/01/19 02:56:59;;;;;;;;;;;;;;;8.79;58.72;103007.69;5101394;28;19986;-84
2022/01/19 02:59:43;;;;;;;;;;;;;;;8.92;58.93;102999.50;5101098;28;19928;-80
2022/01/19 03:10:19;;;;;;;;;;;;;;;8.60;59.75;102962.81;5102117;28;19962;-83
2022/01/19 03:12:44;;;;;;;;;;;;;;;8.25;61.93;102958.44;5101399;28;20010;-83
2022/01/19 03:15:10;;;;;;;;;;;;;;;8.85;60.51;102947.38;5100527;28;19923;-80
2022/01/19 03:17:35;;;;;;;;;;;;;;;9.34;58.61;102954.19;5099273;28;19942;-83
2022/01/19 03:20:01;;;;;;;;;;;;;;;9.18;59.09;102957.03;5099227;28;19924;-82
2022/01/19 03:22:29;;;;;;;;;;;;;;;9.56;58.47;102946.81;5098760;28;19916;-82
2022/01/19 03:24:54;;;;;;;;;;;;;;;9.85;56.87;102951.91;5100899;28;20369;-83
2022/01/19 03:27:19;;;;;;;;;;;;;;;10.04;56.41;102946.28;5099428;28;19923;-83
2022/01/19 03:29:45;;;;;;;;;;;;;;;9.72;57.16;102948.44;5098369;28;19920;-82
2022/01/19 03:32:10;;;;;;;;;;;;;;;9.71;57.53;102948.47;5098256;28;19923;-83
2022/01/19 03:34:36;;;;;;;;;;;;;;;9.89;57.22;102947.38;5099053;28;20373;-82
2022/01/19 03:37:02;;;;;;;;;;;;;;;10.26;55.23;102945.13;5100236;28;19938;-82
2022/01/19 03:39:27;;;;;;;;;;;;;;;10.32;55.32;102946.84;5099143;28;20347;-83
2022/01/19 03:41:52;;;;;;;;;;;;;;;10.31;55.28;102946.88;5098680;28;19942;-85
2022/01/19 03:44:17;;;;;;;;;;;;;;;10.52;54.81;102949.31;5100303;28;19916;-83
2022/01/19 03:46:55;;;;;;;;;;;;;;;10.57;54.33;102947.47;5101441;28;19924;-83
2022/01/19 03:49:24;;;;;;;;;;;;;;;10.31;55.35;102942.38;5100115;28;19923;-83
2022/01/19 03:51:50;;;;;;;;;;;;;;;10.04;55.85;102941.78;5099797;28;20350;-83
2022/01/19 03:54:15;;;;;;;;;;;;;;;9.99;56.63;102935.53;5097414;28;19916;-85
2022/01/19 03:56:41;;;;;;;;;;;;;;;10.36;56.37;102937.81;5099284;28;19919;-84
2022/01/19 03:59:06;;;;;;;;;;;;;;;10.66;54.92;102941.03;5100130;28;19966;-83
2022/01/19 04:01:31;;;;;;;;;;;;;;;10.74;54.72;102938.22;5100561;28;19912;-83
2022/01/19 04:04:24;;;;;;;;;;;;;;;10.71;54.96;102940.97;5101468;28;19916;-82
2022/01/19 04:09:18;;;;;;;;;;;;;;;10.92;54.56;102927.09;5101753;28;19920;-82
2022/01/19 04:11:43;;;;;;;;;;;;;;;10.91;54.08;102925.28;5099542;28;19927;-83
2022/01/19 04:16:34;;;;;;;;;;;;;;;11.09;55.25;102934.06;5100287;28;19923;-83
2022/01/19 04:19:10;;;;;;;;;;;;;;;11.03;54.76;102926.91;5100109;28;19938;-83
2022/01/19 04:21:35;;;;;;;;;;;;;;;10.61;55.95;102930.28;5099357;28;20392;-82
2022/01/19 04:24:01;;;;;;;;;;;;;;;11.12;54.68;102932.19;5099902;28;19920;-82
2022/01/19 04:26:26;;;;;;;;;;;;;;;10.42;56.54;102926.03;5098622;28;19958;-83
2022/01/19 04:28:51;;;;;;;;;;;;;;;10.77;54.98;102919.22;5097499;28;20045;-84
2022/01/19 04:31:18;;;;;;;;;;;;;;;10.70;55.55;102918.38;5097923;28;19923;-86
2022/01/19 04:33:44;;;;;;;;;;;;;;;10.59;55.61;102915.84;5099916;28;19916;-82
2022/01/19 04:36:31;;;;;;;;;;;;;;;10.66;55.54;102902.22;5096669;28;19938;-81
2022/01/19 04:39:21;;;;;;;;;;;;;;;10.62;55.79;102896.84;5097444;28;20365;-81
2022/01/19 05:03:17;;;;;;;;;;;;;;;11.36;55.02;102859.53;5099351;28;19942;-83
2022/01/19 05:13:38;;;;;;;;;;;;;;;11.79;54.01;102849.66;5100283;28;19938;-82
2022/01/19 05:16:03;;;;;;;;;;;;;;;11.91;53.71;102848.50;5097067;28;19958;-84
2022/01/19 05:18:29;;;;;;;;;;;;;;;11.93;54.07;102844.88;5097203;28;19920;-83
2022/01/19 05:20:54;;;;;;;;;;;;;;;11.87;53.96;102842.28;5096995;28;19948;-83
2022/01/19 05:23:19;;;;;;;;;;;;;;;11.83;54.01;102837.81;5096431;28;19967;-83
2022/01/19 05:25:45;;;;;;;;;;;;;;;12.06;53.68;102842.78;5098498;28;19917;-84
2022/01/19 05:28:10;;;;;;;;;;;;;;;12.03;53.43;102832.91;5097470;28;19919;-81
2022/01/19 05:30:35;;;;;;;;;;;;;;;12.08;53.49;102835.53;5096527;28;20396;-84
2022/01/19 05:33:01;;;;;;;;;;;;;;;12.14;53.51;102829.03;5097687;28;19916;-83
2022/01/19 05:35:27;;;;;;;;;;;;;;;12.05;53.43;102831.06;5097225;28;19920;-83
2022/01/19 05:37:53;;;;;;;;;;;;;;;11.91;53.67;102821.38;5097374;28;20313;-84
2022/01/19 05:40:18;;;;;;;;;;;;;;;12.02;53.68;102825.69;5097942;28;19916;-84
2022/01/19 05:42:46;;;;;;;;;;;;;;;12.06;53.80;102815.66;5097570;28;19927;-84
2022/01/19 05:45:11;;;;;;;;;;;;;;;12.10;53.31;102806.53;5098361;28;19916;-81
2022/01/19 05:47:36;;;;;;;;;;;;;;;12.07;53.37;102808.44;5097403;28;19941;-83
2022/01/19 05:50:03;;;;;;;;;;;;;;;12.04;53.94;102795.81;5098309;28;19927;-83
2022/01/19 05:52:28;;;;;;;;;;;;;;;11.93;53.66;102792.47;5096468;28;20349;-82
2022/01/19 05:54:53;;;;;;;;;;;;;;;11.92;53.97;102785.22;5097504;28;20001;-81
2022/01/19 05:57:18;;;;;;;;;;;;;;;11.59;55.42;102782.28;5100581;28;19923;-84
2022/01/19 05:59:44;;;;;;;;;;;;;;;10.93;58.64;102784.44;5101678;28;19916;-82
2022/01/19 06:02:09;;;;;;;;;;;;;;;11.32;56.53;102780.13;5101400;28;19916;-85
2022/01/19 06:04:34;;;;;;;;;;;;;;;11.37;55.37;102777.31;5101296;28;19983;-83
2022/01/19 06:07:02;;;;;;;;;;;;;;;11.63;55.26;102771.34;5101724;28;19904;-85
2022/01/19 06:09:48;;;;;;;;;;;;;;;12.01;54.52;102771.47;5101965;28;19923;-82
2022/01/19 06:12:15;;;;;;;;;;;;;;;12.30;53.49;102770.78;5102756;28;19953;-84
2022/01/19 06:14:41;;;;;;;;;;;;;;;12.31;53.39;102750.88;5102388;28;20453;-84
2022/01/19 06:17:08;;;;;;;;;;;;;;;12.16;54.11;102751.25;5100352;28;19926;-84
2022/01/19 06:19:33;;;;;;;;;;;;;;;11.65;55.57;102744.22;5101325;28;20364;-84
2022/01/19 06:21:59;;;;;;;;;;;;;;;10.49;59.47;102743.69;5101373;28;19955;-85
2022/01/19 06:24:24;;;;;;;;;;;;;;;11.14;57.78;102734.41;5101908;28;19973;-87
2022/01/19 06:26:49;;;;;;;;;;;;;;;10.78;59.38;102731.50;5102035;28;19916;-85
2022/01/19 06:29:15;;;;;;;;;;;;;;;10.55;59.97;102740.00;5102043;28;19916;-84
2022/01/19 06:31:40;;;;;;;;;;;;;;;11.29;57.58;102726.00;5102277;28;19916;-83
2022/01/19 06:34:05;;;;;;;;;;;;;;;11.03;58.54;102714.78;5099191;28;19931;-84
2022/01/19 06:36:30;;;;;;;;;;;;;;;10.86;58.85;102707.88;5101693;28;19916;-84
2022/01/19 06:38:57;;;;;;;;;;;;;;;11.21;57.97;102710.81;5099418;28;19979;-84
2022/01/19 06:41:22;;;;;;;;;;;;;;;10.82;58.99;102704.34;5099268;28;19951;-84
2022/01/19 06:43:47;;;;;;;;;;;;;;;10.85;59.40;102703.34;5098636;28;19900;-84
2022/01/19 06:46:12;;;;;;;;;;;;;;;11.15;58.69;102700.97;5098561;28;19923;-83
2022/01/19 06:48:37;;;;;;;;;;;;;;;11.37;57.17;102697.81;5098753;28;19923;-79
2022/01/19 06:51:03;;;;;;;;;;;;;;;11.16;58.34;102691.94;5099174;28;19943;-81
2022/01/19 06:53:28;;;;;;;;;;;;;;;10.85;58.72;102691.66;5097867;28;20321;-82
2022/01/19 06:55:57;;;;;;;;;;;;;;;11.25;58.08;102688.16;5100628;28;19916;-83
2022/01/19 06:58:26;;;;;;;;;;;;;;;11.32;57.39;102688.00;5097983;28;19916;-85
2022/01/19 07:00:52;;;;;;;;;;;;;;;11.17;58.51;102683.78;5098502;28;19916;-83
2022/01/19 07:03:17;;;;;;;;;;;;;;;10.69;58.55;102696.44;5096823;28;20242;-83
2022/01/19 07:05:42;;;;;;;;;;;;;;;11.45;57.54;102679.59;5095461;28;19920;-81
2022/01/19 07:08:07;;;;;;;;;;;;;;;11.31;57.54;102675.34;5095998;28;19920;-82
2022/01/19 07:10:33;;;;;;;;;;;;;;;11.55;56.44;102673.03;5097007;28;19916;-83
2022/01/19 07:12:59;;;;;;;;;;;;;;;11.16;57.97;102678.41;5099998;28;19941;-83
2022/01/19 07:15:24;;;;;;;;;;;;;;;11.27;57.66;102672.75;5097418;28;20301;-82
2022/01/19 07:17:49;;;;;;;;;;;;;;;11.22;58.28;102674.66;5098171;28;19966;-83
2022/01/19 07:20:15;;;;;;;;;;;;;;;11.84;55.73;102664.22;5096773;28;20284;-81
2022/01/19 07:22:40;;;;;;;;;;;;;;;11.55;57.17;102670.34;5096044;28;20387;-84
2022/01/19 07:25:05;;;;;;;;;;;;;;;11.61;56.33;102667.50;5097715;28;19916;-84
2022/01/19 07:27:30;;;;;;;;;;;;;;;11.79;56.85;102670.69;5097138;28;19920;-82
2022/01/19 07:29:56;;;;;;;;;;;;;;;12.05;54.58;102671.00;5096457;28;19923;-84
2022/01/19 07:32:23;;;;;;;;;;;;;;;12.18;54.73;102670.69;5095935;28;20294;-81
2022/01/19 07:34:48;;;;;;;;;;;;;;;12.30;54.52;102669.47;5095229;28;20276;-81
2022/01/19 07:37:13;;;;;;;;;;;;;;;11.13;57.88;102675.75;5093595;28;20019;-82
2022/01/19 07:39:38;;;;;;;;;;;;;;;11.83;55.98;102672.41;5093350;28;19966;-83
2022/01/19 07:42:04;;;;;;;;;;;;;;;10.69;59.80;102674.78;5095420;28;19912;-84
2022/01/19 07:44:30;;;;;;;;;;;;;;;10.92;58.22;102677.97;5090301;28;19921;-84
2022/01/19 07:46:55;;;;;;;;;;;;;;;12.00;55.88;102663.88;5079596;28;20019;-80
2022/01/19 07:49:20;;;;;;;;;;;;;;;10.96;58.67;102660.72;5103942;28;19912;-80
2022/01/19 07:51:46;;;;;;;;;;;;;;;11.37;58.34;102654.47;5102904;28;19924;-81
2022/01/19 07:54:11;;;;;;;;;;;;;;;10.84;60.45;102654.66;5098493;28;19923;-80
2022/01/19 07:56:36;;;;;;;;;;;;;;;10.61;60.70;102656.00;5096570;28;19927;-86
2022/01/19 07:59:02;;;;;;;;;;;;;;;11.43;58.39;102643.47;5096688;28;20731;-85
2022/01/19 08:01:30;;;;;;;;;;;;;;;11.30;57.68;102637.47;5095104;28;19931;-87
2022/01/19 08:03:56;;;;;;;;;;;;;;;10.95;58.61;102644.50;5094503;28;19927;-84
2022/01/19 08:06:21;;;;;;;;;;;;;;;11.12;58.97;102636.03;5096563;28;19923;-86
2022/01/19 08:08:46;;;;;;;;;;;;;;;10.74;59.72;102635.00;5097167;28;19920;-81
2022/01/19 08:11:11;;;;;;;;;;;;;;;10.98;59.50;102629.09;5095556;28;20007;-84
2022/01/19 08:13:37;;;;;;;;;;;;;;;10.90;59.10;102609.41;5095577;28;19916;-84
2022/01/19 08:16:02;;;;;;;;;;;;;;;11.58;56.83;102607.91;5096522;28;19923;-82
2022/01/19 08:18:27;;;;;;;;;;;;;;;11.86;55.86;102609.94;5097389;28;19916;-82
2022/01/19 08:20:53;;;;;;;;;;;;;;;10.53;59.33;102620.06;5095048;28;20423;-84
2022/01/19 08:23:18;;;;;;;;;;;;;;;10.96;59.09;102614.69;5096436;28;19915;-82
2022/01/19 08:25:43;;;;;;;;;;;;;;;11.29;58.17;102604.06;5102309;28;20305;-84
2022/01/19 08:28:09;;;;;;;;;;;;;;;11.95;56.16;102598.03;5101699;28;19987;-83
2022/01/19 08:30:34;;;;;;;;;;;;;;;11.84;56.08;102610.00;5099742;28;19942;-83
2022/01/19 08:32:59;;;;;;;;;;;;;;;12.52;53.92;102602.84;5095775;28;19916;-84
2022/01/19 08:35:24;;;;;;;;;;;;;;;11.88;55.76;102616.22;5096154;28;19923;-87
2022/01/19 08:37:49;;;;;;;;;;;;;;;11.61;56.83;102610.56;5095935;28;20436;-83
2022/01/19 08:40:15;;;;;;;;;;;;;;;11.92;55.95;102607.09;5097008;28;19957;-81
2022/01/19 08:42:40;;;;;;;;;;;;;;;12.13;55.63;102602.97;5095613;28;19947;-81
2022/01/19 08:45:07;;;;;;;;;;;;;;;11.85;56.10;102602.72;5095103;28;20258;-88
2022/01/19 08:47:37;;;;;;;;;;;;;;;11.91;55.57;102599.88;5079553;28;19931;-86
2022/01/19 08:50:04;;;;;;;;;;;;;;;11.67;56.47;102591.44;5095877;28;20425;-85
2022/01/19 08:52:29;;;;;;;;;;;;;;;11.41;57.19;102585.72;5085165;28;19981;-84
2022/01/19 08:54:54;;;;;;;;;;;;;;;10.83;60.15;102591.50;5095470;28;19920;-87
2022/01/19 08:57:21;;;;;;;;;;;;;;;10.87;59.79;102576.97;5095663;28;19916;-85
2022/01/19 08:59:46;;;;;;;;;;;;;;;10.92;59.28;102572.34;5093971;28;19962;-83
2022/01/19 09:02:11;;;;;;;;;;;;;;;10.64;60.45;102572.03;5094046;28;19928;-85
2022/01/19 09:04:36;;;;;;;;;;;;;;;11.15;59.59;102562.84;5096325;28;19931;-83
2022/01/19 09:07:02;;;;;;;;;;;;;;;10.86;59.27;102561.66;5095404;28;19977;-84
2022/01/19 09:09:27;;;;;;;;;;;;;;;10.94;59.42;102556.94;5096038;28;19916;-83
2022/01/19 09:11:52;;;;;;;;;;;;;;;11.45;58.57;102563.06;5094989;28;19904;-83
2022/01/19 09:14:17;;;;;;;;;;;;;;;10.98;58.87;102558.69;5097064;28;20330;-80
2022/01/19 09:16:44;;;;;;;;;;;;;;;10.88;59.80;102543.53;5095007;28;19912;-83
2022/01/19 09:19:10;;;;;;;;;;;;;;;11.06;58.62;102541.38;5096202;28;19956;-84
2022/01/19 09:21:36;;;;;;;;;;;;;;;11.13;58.82;102540.31;5096998;28;19924;-85
2022/01/19 09:24:01;;;;;;;;;;;;;;;11.41;58.75;102527.00;5096125;28;20329;-83
2022/01/19 09:26:28;;;;;;;;;;;;;;;10.93;59.93;102510.94;5098212;28;19917;-83
2022/01/19 09:28:53;;;;;;;;;;;;;;;10.62;61.38;102507.09;5099604;28;19919;-81
2022/01/19 09:31:19;;;;;;;;;;;;;;;10.29;61.46;102501.41;5102952;28;19916;-82
2022/01/19 09:33:52;;;;;;;;;;;;;;;10.26;62.44;102496.06;5103340;28;19920;-81
2022/01/19 09:36:30;;;;;;;;;;;;;;;10.70;61.04;102508.75;5116965;28;19920;-82
2022/01/19 09:38:55;;;;;;;;;;;;;;;10.24;62.44;102507.88;5120189;28;20435;-82
2022/01/19 09:41:21;;;;;;;;;;;;;;;10.42;61.13;102509.34;5119426;28;19915;-82
2022/01/19 09:43:46;;;;;;;;;;;;;;;10.67;61.15;102498.00;5119118;28;19938;-84
2022/01/19 09:46:12;;;;;;;;;;;;;;;10.31;63.36;102493.31;5119451;28;20006;-81
2022/01/19 09:48:37;;;;;;;;;;;;;;;11.05;60.61;102494.44;5120738;28;20296;-82
2022/01/19 09:51:02;;;;;;;;;;;;;;;11.20;60.34;102498.59;5119484;28;19931;-82
2022/01/19 09:53:28;;;;;;;;;;;;;;;10.15;63.32;102499.94;5118166;28;20302;-82
2022/01/19 09:55:53;;;;;;;;;;;;;;;10.06;64.40;102506.41;5119235;28;20041;-81
2022/01/19 09:58:21;;;;;;;;;;;;;;;10.22;63.75;102515.09;5118141;28;19922;-82
2022/01/19 10:00:46;;;;;;;;;;;;;;;11.09;60.82;102512.38;5118589;28;19966;-82
2022/01/19 10:03:23;;;;;;;;;;;;;;;11.09;62.21;102506.97;5117561;28;19915;-82
2022/01/19 10:05:58;;;;;;;;;;;;;;;10.86;61.90;102526.47;5118918;28;19922;-80
2022/01/19 10:08:27;;;;;;;;;;;;;;;11.34;60.18;102523.56;5084594;28;19924;-81
2022/01/19 10:11:04;;;;;;;;;;;;;;;11.31;59.47;102529.03;5122579;27;20057;-80
2022/01/19 10:19:26;;;;;;;;;;;;;;;10.32;63.70;102529.34;5075225;28;19943;-82
2022/01/19 10:21:55;;;;;;;;;;;;;;;11.78;58.83;102522.50;5076088;28;19974;-83
2022/01/19 10:24:31;;;;;;;;;;;;;;;10.93;60.95;102511.88;5076625;28;20016;-81
2022/01/19 10:27:16;;;;;;;;;;;;;;;11.51;58.96;102512.28;5097982;28;19912;-84
2022/01/19 10:29:42;;;;;;;;;;;;;;;10.98;59.45;102509.06;5093931;28;19968;-80
2022/01/19 10:32:07;;;;;;;;;;;;;;;11.55;59.28;102510.41;5095525;28;19920;-81
2022/01/19 10:34:33;;;;;;;;;;;;;;;10.68;61.23;102503.38;5095495;28;19938;-80
2022/01/19 10:37:02;;;;;;;;;;;;;;;10.71;61.39;102495.19;5096455;28;20377;-79
2022/01/19 10:39:48;;;;;;;;;;;;;;;11.01;62.52;102492.72;5079721;28;19999;-80
2022/01/19 10:42:18;;;;;;;;;;;;;;;11.71;57.88;102483.78;5095980;28;19924;-83
2022/01/19 10:44:45;;;;;;;;;;;;;;;12.22;57.40;102480.63;5116237;27;19917;-81
2022/01/19 10:47:10;;;;;;;;;;;;;;;11.41;59.44;102475.50;5093384;28;20015;-80
2022/01/19 10:49:47;;;;;;;;;;;;;;;11.50;60.37;102463.53;5096379;28;19990;-82
2022/01/19 10:52:32;;;;;;;;;;;;;;;11.01;61.01;102454.81;5097305;28;19966;-81
2022/01/19 10:55:00;;;;;;;;;;;;;;;10.50;63.26;102447.81;5095594;28;19939;-77
2022/01/19 10:57:27;;;;;;;;;;;;;;;10.79;61.43;102441.78;5095804;28;19923;-79
2022/01/19 10:59:53;;;;;;;;;;;;;;;11.31;61.52;102439.63;5097113;28;19924;-79
2022/01/19 11:02:19;;;;;;;;;;;;;;;10.97;62.88;102439.56;5097065;28;19923;-79
2022/01/19 11:04:45;;;;;;;;;;;;;;;11.52;58.04;102430.06;5095946;28;20014;-79
2022/01/19 11:07:12;;;;;;;;;;;;;;;10.05;65.46;102428.91;5098696;28;19916;-79
2022/01/19 11:09:45;;;;;;;;;;;;;;;11.13;62.13;102416.59;5098036;28;19916;-80
2022/01/19 11:12:14;;;;;;;;;;;;;;;10.90;61.78;102418.97;5097120;28;19922;-77
2022/01/19 11:14:40;;;;;;;;;;;;;;;10.75;62.00;102414.78;5096256;28;19923;-80
2022/01/19 11:17:06;;;;;;;;;;;;;;;10.82;62.78;102397.47;5096517;28;19916;-79
2022/01/19 11:19:35;;;;;;;;;;;;;;;11.16;61.40;102402.09;5098481;28;20429;-80
2022/01/19 11:22:09;;;;;;;;;;;;;;;11.61;60.67;102398.22;5098618;28;20450;-81
2022/01/19 11:24:41;;;;;;;;;;;;;;;11.18;61.49;102394.81;5095339;28;19920;-79
2022/01/19 11:27:07;;;;;;;;;;;;;;;11.34;61.45;102393.50;5095841;28;19963;-81
2022/01/19 11:29:32;;;;;;;;;;;;;;;11.31;61.96;102388.16;5096310;28;19923;-82
2022/01/19 11:31:58;;;;;;;;;;;;;;;11.60;60.44;102370.22;5129805;27;19950;-82
2022/01/19 11:34:46;;;;;;;;;;;;;;;11.88;59.57;102374.84;5096952;28;19963;-81
2022/01/19 11:37:12;;;;;;;;;;;;;;;11.38;60.95;102371.72;5095822;28;19911;-82
2022/01/19 11:39:57;;;;;;;;;;;;;;;11.28;62.67;102354.84;5096567;28;19930;-80
2022/01/19 11:42:23;;;;;;;;;;;;;;;11.38;60.57;102344.63;5096438;28;19919;-84
2022/01/19 11:44:51;;;;;;;;;;;;;;;11.30;60.33;102351.13;5095418;28;19923;-82
2022/01/19 11:47:18;;;;;;;;;;;;;;;11.38;58.65;102341.91;5095464;28;19912;-82
2022/01/19 11:49:43;;;;;;;;;;;;;;;11.28;61.23;102333.16;5095735;28;20424;-83
2022/01/19 11:52:08;;;;;;;;;;;;;;;11.22;61.63;102338.72;5096101;28;19955;-84
2022/01/19 11:54:34;;;;;;;;;;;;;;;11.44;59.98;102333.63;5096497;28;19927;-86
2022/01/19 11:56:59;;;;;;;;;;;;;;;11.37;61.35;102326.59;5096919;28;19955;-84
2022/01/19 11:59:26;;;;;;;;;;;;;;;12.12;59.01;102316.31;5095000;28;19912;-82
2022/01/19 12:01:52;;;;;;;;;;;;;;;11.56;60.13;102311.59;5095623;28;19920;-84
2022/01/19 12:04:18;;;;;;;;;;;;;;;11.18;61.51;102305.41;5096186;28;19912;-84
2022/01/19 12:06:44;;;;;;;;;;;;;;;11.84;59.33;102305.41;5090177;28;19978;-83
2022/01/19 12:09:12;;;;;;;;;;;;;;;12.68;56.94;102299.19;5099715;28;20277;-81
2022/01/19 12:11:43;;;;;;;;;;;;;;;12.34;57.06;102289.41;5114391;28;20463;-84
2022/01/19 12:14:14;;;;;;;;;;;;;;;12.66;55.76;102279.31;5118357;28;19915;-84
2022/01/19 12:19:06;;;;;;;;;;;;;;;11.41;59.50;102279.50;5115673;28;20432;-83
2022/01/19 12:21:31;;;;;;;;;;;;;;;10.72;63.12;102274.09;5099231;28;19948;-85
2022/01/19 12:24:21;;;;;;;;;;;;;;;12.25;57.51;102275.25;5098124;28;19904;-84
2022/01/19 12:27:01;;;;;;;;;;;;;;;12.55;56.21;102274.25;5097359;28;19923;-85
2022/01/19 12:29:38;;;;;;;;;;;;;;;12.59;56.27;102280.47;5098271;28;19924;-83
2022/01/19 12:32:11;;;;;;;;;;;;;;;11.40;59.91;102277.72;5097077;28;20411;-86
2022/01/19 12:34:43;;;;;;;;;;;;;;;11.12;61.46;102267.66;5098870;28;20003;-83
2022/01/19 12:37:09;;;;;;;;;;;;;;;11.28;60.30;102268.16;5096927;28;20399;-83
2022/01/19 12:39:36;;;;;;;;;;;;;;;12.74;56.16;102255.53;5097983;28;19920;-87
2022/01/19 12:42:03;;;;;;;;;;;;;;;10.80;61.91;102245.03;5131595;27;19912;-83
2022/01/19 12:44:34;;;;;;;;;;;;;;;11.13;62.08;102248.66;5096903;28;19907;-80
2022/01/19 12:47:00;;;;;;;;;;;;;;;10.68;64.15;102239.94;5095805;28;19923;-84
2022/01/19 12:49:26;;;;;;;;;;;;;;;10.78;63.98;102236.97;5094827;28;19912;-84
2022/01/19 12:51:51;;;;;;;;;;;;;;;11.09;62.65;102235.25;5099093;28;19968;-80
2022/01/19 12:54:24;;;;;;;;;;;;;;;10.39;65.32;102231.63;5103507;28;19916;-81
2022/01/19 12:56:53;;;;;;;;;;;;;;;11.15;61.99;102213.41;5097187;28;19916;-81
2022/01/19 12:59:18;;;;;;;;;;;;;;;10.84;63.86;102224.19;5129712;28;20019;-85
2022/01/19 13:01:43;;;;;;;;;;;;;;;10.87;63.66;102224.09;5095334;28;19947;-83
2022/01/19 13:04:09;;;;;;;;;;;;;;;11.45;62.29;102227.91;5096556;28;19934;-83
2022/01/19 13:06:35;;;;;;;;;;;;;;;11.28;63.20;102214.84;5095439;28;20413;-82
2022/01/19 13:09:08;;;;;;;;;;;;;;;11.69;60.62;102207.31;5094993;28;20012;-83
2022/01/19 13:11:40;;;;;;;;;;;;;;;11.56;60.93;102196.88;5094552;28;19962;-83
2022/01/19 13:14:07;;;;;;;;;;;;;;;10.81;63.32;102195.41;5094236;28;20161;-84
2022/01/19 13:16:36;;;;;;;;;;;;;;;11.38;62.74;102188.34;5094826;28;19912;-83
2022/01/19 13:19:03;;;;;;;;;;;;;;;10.77;61.92;102185.56;5095362;28;19916;-82
2022/01/19 13:21:29;;;;;;;;;;;;;;;11.44;61.08;102177.31;5094158;28;20062;-84
2022/01/19 13:23:58;;;;;;;;;;;;;;;10.62;62.60;102173.34;5097739;28;19965;-82
2022/01/19 13:26:24;;;;;;;;;;;;;;;11.55;60.61;102159.88;5097092;28;19923;-81
2022/01/19 13:28:49;;;;;;;;;;;;;;;10.61;63.18;102160.72;5096932;28;19912;-83
2022/01/19 13:31:20;;;;;;;;;;;;;;;11.53;61.27;102154.50;5095549;28;20364;-83
2022/01/19 13:33:55;;;;;;;;;;;;;;;11.72;60.75;102152.09;5097165;28;19948;-84
2022/01/19 13:36:34;;;;;;;;;;;;;;;11.61;61.28;102143.41;5095991;28;19916;-83
2022/01/19 13:39:00;;;;;;;;;;;;;;;11.72;60.75;102138.56;5094125;28;19923;-84
2022/01/19 13:41:26;;;;;;;;;;;;;;;11.17;60.92;102136.59;5095677;28;19916;-83
2022/01/19 13:43:51;;;;;;;;;;;;;;;11.26;60.83;102132.75;5095579;28;20411;-84
2022/01/19 13:46:21;;;;;;;;;;;;;;;11.22;63.22;102127.44;5095862;28;20003;-85
2022/01/19 13:48:52;;;;;;;;;;;;;;;10.54;63.86;102132.94;5094832;28;20312;-84
2022/01/19 13:51:19;;;;;;;;;;;;;;;10.93;63.44;102126.47;5095611;28;19924;-82
2022/01/19 13:53:49;;;;;;;;;;;;;;;10.69;64.97;102111.78;5095715;28;20109;-83
2022/01/19 13:56:22;;;;;;;;;;;;;;;11.25;62.96;102128.25;5096269;28;20396;-84
2022/01/19 13:58:49;;;;;;;;;;;;;;;11.10;65.10;102128.72;5102325;28;19916;-84
2022/01/19 14:01:20;;;;;;;;;;;;;;;10.63;66.20;102119.16;5097960;28;20014;-83
2022/01/19 14:03:48;;;;;;;;;;;;;;;11.05;65.26;102136.06;5096023;28;19924;-81
2022/01/19 14:06:27;;;;;;;;;;;;;;;11.56;64.13;102121.88;5096057;28;20230;-83
2022/01/19 14:09:23;;;;;;;;;;;;;;;11.40;64.28;102131.41;5091929;28;20316;-82